logo tempoitalia

Diretta Meteo Mather Fld, Stati Uniti (USA)domenica 30 agosto ore 23:35

Mappa
Sereno 15 °C Sereno 24 Ore: T.min 12 T.max 32
Ponente Sud-Est Km/h 11.1 Punto di rugiada: 11 °C Umidità: 76% Visibilità: 10 Km
Il sole sorge alle: 06:33 Il sole tramonta alle: 19:38
30 Agosto 2026 23:35 tempo osservato: Sereno Sereno 15 76 1010 vento: Nord SE 11.1
30 Agosto 2026 23:15 tempo osservato: Sereno Sereno 16 67 1010 vento: Nord SE 9.3
30 Agosto 2026 22:55 tempo osservato: Sereno Sereno 17 67 1010 vento: Nord SE 9.3
30 Agosto 2026 22:35 tempo osservato: Sereno Sereno 17 67 1010 vento: Nord SE 13
30 Agosto 2026 22:15 tempo osservato: Sereno Sereno 19 59 1010 vento: Nord S 7.4
30 Agosto 2026 21:55 tempo osservato: Sereno Sereno 20 56 1009 vento: Nord S/SO 7.4
30 Agosto 2026 21:35 tempo osservato: Sereno Sereno 21 52 1009 vento: Nord SO 9.3
30 Agosto 2026 21:15 tempo osservato: Sereno Sereno 22 49 1009 vento: Nord SO 13
30 Agosto 2026 20:55 tempo osservato: Sereno Sereno 23 43 1009 vento: Nord S/SO 18.5
30 Agosto 2026 20:35 tempo osservato: Sereno Sereno 23 40 1009 vento: Nord S/SO 16.7
30 Agosto 2026 20:15 tempo osservato: Sereno Sereno 24 38 1009 vento: Nord SO 11.1
30 Agosto 2026 19:55 tempo osservato: Sereno Sereno 26 34 1009 vento: Nord SO 14.8
30 Agosto 2026 19:35 tempo osservato: Sereno Sereno 27 28 1009 vento: Nord SO 16.7
30 Agosto 2026 19:15 tempo osservato: Sereno Sereno 28 30 1008 vento: Nord SO 16.7
30 Agosto 2026 18:55 tempo osservato: Sereno Sereno 30 25 1008 vento: Nord SO 16.7
30 Agosto 2026 18:35 tempo osservato: Sereno Sereno 31 25 1008 vento: Nord S/SO 14.8
30 Agosto 2026 18:15 tempo osservato: Sereno Sereno 32 19 1008 vento: Nord SO 9.3
30 Agosto 2026 17:55 tempo osservato: Sereno Sereno 32 19 1009 vento: Nord SO 11.1
30 Agosto 2026 17:35 tempo osservato: Sereno Sereno 32 21 1009 vento: Nord N 7.4
30 Agosto 2026 17:15 tempo osservato: Sereno Sereno 32 22 1009 vento: Nord N 5.5
30 Agosto 2026 16:55 tempo osservato: Sereno Sereno 32 22 1009 vento: Nord O 9.3
30 Agosto 2026 16:35 tempo osservato: Sereno Sereno 32 22 1009 vento: Nord O 11.1
30 Agosto 2026 16:15 tempo osservato: Sereno Sereno 32 22 1009 vento: Nord N 11.1
30 Agosto 2026 15:55 tempo osservato: Sereno Sereno 32 21 1009 vento: Nord O/SO 7.4
30 Agosto 2026 15:35 tempo osservato: Sereno Sereno 32 22 1010 vento: Nord O/NO 11.1
30 Agosto 2026 15:15 tempo osservato: Sereno Sereno 31 25 1010 vento: Nord N 11.1
30 Agosto 2026 14:55 tempo osservato: Sereno Sereno 30 28 1010 vento: Nord O 7.4
30 Agosto 2026 14:35 tempo osservato: Sereno Sereno 30 28 1010 vento: Nord N 5.5
30 Agosto 2026 14:15 tempo osservato: Sereno Sereno 30 30 1011 vento: Nord N 0
30 Agosto 2026 13:55 tempo osservato: Sereno Sereno 28 34 1011 vento: Nord N 7.4
30 Agosto 2026 13:35 tempo osservato: Sereno Sereno 29 32 1011 vento: Nord SO 9.3
30 Agosto 2026 13:15 tempo osservato: Sereno Sereno 27 36 1011 vento: Nord N 9.3
30 Agosto 2026 12:55 tempo osservato: Sereno Sereno 26 39 1011 vento: Nord O/SO 7.4
30 Agosto 2026 12:15 tempo osservato: Sereno Sereno 25 41 1012 vento: Nord N 0
30 Agosto 2026 11:55 tempo osservato: Sereno Sereno 25 44 1012 vento: Nord N 5.5
30 Agosto 2026 11:35 tempo osservato: Sereno Sereno 24 47 1012 vento: Nord N 0
30 Agosto 2026 11:15 tempo osservato: Sereno Sereno 23 49 1012 vento: Nord S/SO 7.4
30 Agosto 2026 10:55 tempo osservato: Sereno Sereno 22 53 1012 vento: Nord N 5.5
30 Agosto 2026 10:35 tempo osservato: Sereno Sereno 21 56 1013 vento: Nord S/SO 7.4
30 Agosto 2026 10:15 tempo osservato: Sereno Sereno 21 56 1013 vento: Nord S 7.4
30 Agosto 2026 09:55 tempo osservato: Sereno Sereno 20 56 1012 vento: Nord SE 7.4
30 Agosto 2026 09:35 tempo osservato: Sereno Sereno 19 63 1012 vento: Nord N 0
30 Agosto 2026 09:15 tempo osservato: Sereno Sereno 19 63 1012 vento: Nord N 5.5
30 Agosto 2026 08:55 tempo osservato: Sereno Sereno 18 67 1012 vento: Nord N 5.5
30 Agosto 2026 08:35 tempo osservato: Sereno Sereno 17 72 1012 vento: Nord S 7.4
30 Agosto 2026 08:15 tempo osservato: Sereno Sereno 17 72 1012 vento: Nord S 11.1
30 Agosto 2026 07:55 tempo osservato: Sereno Sereno 16 72 1012 vento: Nord N 5.5
30 Agosto 2026 07:35 tempo osservato: Sereno Sereno 15 76 1012 vento: Nord S 7.4
30 Agosto 2026 07:15 tempo osservato: Sereno Sereno 14 76 1012 vento: Nord N 5.5
30 Agosto 2026 06:55 tempo osservato: Sereno Sereno 14 76 1012 vento: Nord N 0
30 Agosto 2026 06:35 tempo osservato: Sereno Sereno 12 81 1012 vento: Nord N 0
30 Agosto 2026 06:15 tempo osservato: Sereno Sereno 14 76 1012 vento: Nord N 0
30 Agosto 2026 05:55 tempo osservato: Sereno Sereno 13 76 1011 vento: Nord S/SO 11.1
30 Agosto 2026 05:35 tempo osservato: Sereno Sereno 14 71 1011 vento: Nord N 5.5
30 Agosto 2026 05:15 tempo osservato: Sereno Sereno 13 76 1011 vento: Nord E/SE 7.4
30 Agosto 2026 04:55 tempo osservato: Sereno Sereno 14 71 1011 vento: Nord SE 7.4
30 Agosto 2026 04:35 tempo osservato: Sereno Sereno 13 81 1011 vento: Nord SE 7.4
30 Agosto 2026 04:15 tempo osservato: Sereno Sereno 13 76 1011 vento: Nord E/SE 7.4
30 Agosto 2026 03:55 tempo osservato: Sereno Sereno 14 71 1011 vento: Nord SE 7.4
30 Agosto 2026 03:35 tempo osservato: Sereno Sereno 15 72 1011 vento: Nord N 5.5
30 Agosto 2026 03:15 tempo osservato: Sereno Sereno 15 72 1011 vento: Nord S/SO 7.4
30 Agosto 2026 02:55 tempo osservato: Sereno Sereno 14 76 1011 vento: Nord S 7.4
30 Agosto 2026 02:35 tempo osservato: Sereno Sereno 14 71 1011 vento: Nord S 9.3
30 Agosto 2026 02:15 tempo osservato: Sereno Sereno 14 76 1011 vento: Nord S/SE 9.3
30 Agosto 2026 01:55 tempo osservato: Sereno Sereno 15 72 1011 vento: Nord S/SE 13
30 Agosto 2026 01:35 tempo osservato: Sereno Sereno 16 67 1011 vento: Nord N 5.5
30 Agosto 2026 01:15 tempo osservato: Sereno Sereno 17 63 1011 vento: Nord SO 9.3
30 Agosto 2026 00:55 tempo osservato: Sereno Sereno 15 72 1011 vento: Nord S 11.1
30 Agosto 2026 00:35 tempo osservato: Sereno Sereno 15 72 1011 vento: Nord S/SE 13
30 Agosto 2026 00:15 tempo osservato: Sereno Sereno 16 67 1011 vento: Nord S/SE 11.1
29 Agosto 2026 23:55 tempo osservato: Sereno Sereno 16 67 1011 vento: Nord SE 11.1
29 Agosto 2026 23:35 tempo osservato: Sereno Sereno 18 59 1011 vento: Nord S/SO 9.3